KVAD/VAD METAR and TAF weather

Enter ICAO airport designator
Station Type Date Time Source
KVAD METAR 2021/02/25 14:56 UTC NOAA

KVAD 251456Z AUTO 30006KT 10SM CLR 19/13 A3022 RMK AO2 SLP235 T01860132 52020 $


Station Type Date Time Source
KVAD Decoded METAR 2021/02/25 14:56 UTC NOAA

Moody Air Force Base, GA, United States (KVAD) 30-58N 083-12W 71M
Feb 25, 2021 - 09:56 AM EST / 2021.02.25 1456 UTC
Wind: from the WNW (300 degrees) at 7 MPH (6 KT):0
Visibility: 10 mile(s):0
Sky conditions: clear
Temperature: 65.5 F (18.6 C)
Dew Point: 55.8 F (13.2 C)
Relative Humidity: 70%
Pressure (altimeter): 30.22 in. Hg (1023 hPa)
Pressure tendency: 0.06 inches (2.0 hPa) higher than three hours ago
ob: KVAD 251456Z AUTO 30006KT 10SM CLR 19/13 A3022 RMK AO2 SLP235 T01860132 52020
cycle: 15

Station Type Date Time Source
KVAD TAF 2021/02/25 09:18 UTC NOAA

TAF COR KVAD 250905Z 2509/2615 26006KT 9999 SKC QNH3012INS
BECMG 2514/2515 27007KT 9999 SCT060 QNH3009INS
BECMG 2518/2519 30009KT 9999 BKN060 QNH3009INS
BECMG 2604/2605 18004KT 9999 SCT040 QNH3010INS
BECMG 2609/2610 24004KT 4800 BR SCT040 QNH3012INS
BECMG 2613/2614 24004KT 9999 NSW SCT040 QNH3015INS TX24/2520Z TN08/2512Z

Example: see airport list